87907 UMMS-ULLI
Flight info
| Callsign | 87907 |
|---|---|
| Flight time | 1h 33m |
| Altitude | 22000 |
| Route | AGNEF2F AGNEF N743 DITBI T782 KOLET KOLET1B |
| Aircraft | YK40/M-SDFIRWY/H |
Departure
| Time | 2026-04-30 18:51 |
|---|---|
| Airport | Minsk National Airport (UMMS) |
Arrival
| Time | 2026-04-30 20:25 |
|---|---|
| Airport | Pulkovo Airport (ULLI) |
| Time | Latitude | Longitude | Altitude | Speed | Heading |
|---|---|---|---|---|---|
| 2026-04-30 18:19 | 53.88377 | 28.03570 | 688 ft | 0 kts | 48° |
| 2026-04-30 18:45 | 53.88695 | 28.03888 | 688 ft | 10 kts | 49° |
| 2026-04-30 18:45 | 53.88750 | 28.03995 | 688 ft | 13 kts | 48° |
| 2026-04-30 18:45 | 53.88821 | 28.04131 | 688 ft | 16 kts | 49° |
| 2026-04-30 18:46 | 53.88902 | 28.04288 | 688 ft | 15 kts | 49° |
| 2026-04-30 18:46 | 53.88977 | 28.04435 | 688 ft | 17 kts | 49° |
| 2026-04-30 18:46 | 53.89039 | 28.04554 | 688 ft | 15 kts | 49° |
| 2026-04-30 18:46 | 53.89115 | 28.04700 | 688 ft | 16 kts | 49° |
| 2026-04-30 18:47 | 53.89172 | 28.04815 | 688 ft | 10 kts | 51° |
| 2026-04-30 18:47 | 53.89177 | 28.04929 | 688 ft | 11 kts | 131° |
| 2026-04-30 18:47 | 53.89109 | 28.05028 | 688 ft | 14 kts | 139° |
| 2026-04-30 18:47 | 53.89024 | 28.05154 | 688 ft | 18 kts | 139° |
| 2026-04-30 18:48 | 53.88928 | 28.05294 | 688 ft | 17 kts | 139° |
| 2026-04-30 18:48 | 53.88829 | 28.05442 | 688 ft | 19 kts | 138° |
| 2026-04-30 18:48 | 53.88734 | 28.05581 | 688 ft | 19 kts | 139° |
| 2026-04-30 18:48 | 53.88660 | 28.05695 | 688 ft | 14 kts | 131° |
| 2026-04-30 18:49 | 53.88640 | 28.05814 | 688 ft | 8 kts | 60° |
| 2026-04-30 18:49 | 53.88701 | 28.05841 | 688 ft | 11 kts | 347° |
| 2026-04-30 18:49 | 53.88780 | 28.05811 | 688 ft | 11 kts | 355° |
| 2026-04-30 18:49 | 53.88845 | 28.05816 | 688 ft | 6 kts | 349° |
| 2026-04-30 18:50 | 53.88874 | 28.05782 | 688 ft | 1 kts | 316° |
| 2026-04-30 18:50 | 53.88875 | 28.05782 | 688 ft | 0 kts | 317° |
| 2026-04-30 18:50 | 53.88923 | 28.05708 | 688 ft | 32 kts | 319° |
| 2026-04-30 18:51 | 53.89253 | 28.05218 | 688 ft | 92 kts | 319° |
| 2026-04-30 18:51 | 53.89861 | 28.04311 | 762 ft | 134 kts | 319° |
| 2026-04-30 18:51 | 53.90557 | 28.03205 | 1172 ft | 143 kts | 318° |
| 2026-04-30 18:51 | 53.91353 | 28.01969 | 1478 ft | 171 kts | 319° |
| 2026-04-30 18:52 | 53.92307 | 28.00585 | 1920 ft | 190 kts | 321° |
| 2026-04-30 18:52 | 53.93315 | 27.99188 | 2461 ft | 191 kts | 321° |
| 2026-04-30 18:52 | 53.94422 | 27.97869 | 2870 ft | 198 kts | 333° |
| 2026-04-30 18:52 | 53.95754 | 27.97289 | 3276 ft | 205 kts | 356° |
| 2026-04-30 18:53 | 53.97165 | 27.97648 | 3738 ft | 208 kts | 12° |
| 2026-04-30 18:53 | 53.98576 | 27.98200 | 4208 ft | 209 kts | 11° |
| 2026-04-30 18:53 | 53.99987 | 27.98740 | 4653 ft | 211 kts | 11° |
| 2026-04-30 18:53 | 54.01404 | 27.99279 | 5098 ft | 212 kts | 10° |
| 2026-04-30 18:54 | 54.02850 | 27.99808 | 5548 ft | 211 kts | 11° |
| 2026-04-30 18:54 | 54.04248 | 28.00338 | 5962 ft | 207 kts | 11° |
| 2026-04-30 18:54 | 54.05615 | 28.01104 | 6329 ft | 207 kts | 30° |
| 2026-04-30 18:54 | 54.06558 | 28.02942 | 6579 ft | 214 kts | 69° |
| 2026-04-30 18:55 | 54.06684 | 28.05436 | 6869 ft | 216 kts | 92° |
| 2026-04-30 18:55 | 54.06602 | 28.10631 | 7420 ft | 221 kts | 90° |
| 2026-04-30 18:55 | 54.06590 | 28.13245 | 7672 ft | 223 kts | 90° |
| 2026-04-30 18:56 | 54.06450 | 28.18570 | 8161 ft | 227 kts | 92° |
| 2026-04-30 18:56 | 54.06485 | 28.21234 | 8512 ft | 225 kts | 84° |
| 2026-04-30 18:56 | 54.06623 | 28.23867 | 8890 ft | 222 kts | 85° |
| 2026-04-30 18:57 | 54.06850 | 28.28997 | 9731 ft | 212 kts | 86° |
| 2026-04-30 18:57 | 54.06956 | 28.31469 | 10123 ft | 208 kts | 86° |
| 2026-04-30 18:57 | 54.07063 | 28.33906 | 10487 ft | 207 kts | 86° |
| 2026-04-30 18:58 | 54.07602 | 28.38651 | 11127 ft | 208 kts | 64° |
| 2026-04-30 18:58 | 54.08308 | 28.40841 | 11339 ft | 214 kts | 60° |
| 2026-04-30 18:58 | 54.09039 | 28.43092 | 11540 ft | 220 kts | 61° |
| 2026-04-30 18:59 | 54.10522 | 28.47742 | 12009 ft | 227 kts | 61° |
| 2026-04-30 19:00 | 54.13839 | 28.53209 | 12828 ft | 228 kts | 23° |
| 2026-04-30 19:00 | 54.15289 | 28.54325 | 13078 ft | 230 kts | 23° |
| 2026-04-30 19:00 | 54.18213 | 28.56646 | 13591 ft | 233 kts | 24° |
| 2026-04-30 19:01 | 54.21154 | 28.58977 | 14110 ft | 235 kts | 24° |
| 2026-04-30 19:01 | 54.22642 | 28.60172 | 14371 ft | 236 kts | 24° |
| 2026-04-30 19:02 | 54.25619 | 28.62545 | 14893 ft | 238 kts | 23° |
| 2026-04-30 19:02 | 54.28629 | 28.64936 | 15413 ft | 240 kts | 23° |
| 2026-04-30 19:03 | 54.31654 | 28.67372 | 15922 ft | 242 kts | 24° |
| 2026-04-30 19:03 | 54.34701 | 28.69817 | 16433 ft | 243 kts | 24° |
| 2026-04-30 19:04 | 54.37782 | 28.72272 | 16939 ft | 245 kts | 24° |
| 2026-04-30 19:04 | 54.40855 | 28.74760 | 17438 ft | 246 kts | 24° |
| 2026-04-30 19:05 | 54.43958 | 28.77254 | 17938 ft | 248 kts | 24° |
| 2026-04-30 19:05 | 54.47070 | 28.79754 | 18434 ft | 249 kts | 19° |
| 2026-04-30 19:06 | 54.50408 | 28.80878 | 18966 ft | 246 kts | 2° |
| 2026-04-30 19:06 | 54.52109 | 28.81128 | 19203 ft | 247 kts | 2° |
| 2026-04-30 19:06 | 54.55545 | 28.81690 | 19686 ft | 249 kts | 3° |
| 2026-04-30 19:07 | 54.58978 | 28.82283 | 20169 ft | 250 kts | 3° |
| 2026-04-30 19:07 | 54.60701 | 28.82586 | 20409 ft | 250 kts | 3° |
| 2026-04-30 19:08 | 54.64172 | 28.83210 | 20887 ft | 251 kts | 3° |
| 2026-04-30 19:08 | 54.67624 | 28.83656 | 21362 ft | 251 kts | 1° |
| 2026-04-30 19:08 | 54.69360 | 28.83889 | 21593 ft | 251 kts | 1° |
| 2026-04-30 19:09 | 54.72848 | 28.84379 | 22000 ft | 254 kts | 1° |
| 2026-04-30 19:09 | 54.74617 | 28.84630 | 22125 ft | 259 kts | 1° |
| 2026-04-30 19:09 | 54.76428 | 28.84887 | 22245 ft | 263 kts | 1° |
| 2026-04-30 19:10 | 54.80154 | 28.85410 | 22321 ft | 274 kts | 1° |
| 2026-04-30 19:10 | 54.83973 | 28.85943 | 22300 ft | 279 kts | 1° |
| 2026-04-30 19:11 | 54.85909 | 28.86213 | 22294 ft | 280 kts | 1° |
| 2026-04-30 19:11 | 54.89802 | 28.86824 | 22291 ft | 283 kts | 2° |
| 2026-04-30 19:11 | 54.91758 | 28.87125 | 22292 ft | 284 kts | 2° |
| 2026-04-30 19:12 | 54.93735 | 28.87423 | 22292 ft | 285 kts | 2° |
| 2026-04-30 19:12 | 54.95682 | 28.87713 | 22296 ft | 285 kts | 2° |
| 2026-04-30 19:12 | 54.97677 | 28.88008 | 22291 ft | 286 kts | 2° |
| 2026-04-30 19:13 | 55.01617 | 28.88583 | 22291 ft | 288 kts | 2° |
| 2026-04-30 19:13 | 55.05604 | 28.89156 | 22292 ft | 289 kts | 2° |
| 2026-04-30 19:13 | 55.07608 | 28.89457 | 22294 ft | 290 kts | 3° |
| 2026-04-30 19:14 | 55.09615 | 28.89816 | 22287 ft | 291 kts | 3° |
| 2026-04-30 19:14 | 55.11637 | 28.90164 | 22289 ft | 291 kts | 2° |
| 2026-04-30 19:14 | 55.13632 | 28.90499 | 22291 ft | 291 kts | 2° |
| 2026-04-30 19:14 | 55.15647 | 28.90836 | 22289 ft | 291 kts | 2° |
| 2026-04-30 19:15 | 55.17650 | 28.91168 | 22290 ft | 292 kts | 2° |
| 2026-04-30 19:15 | 55.21693 | 28.91840 | 22289 ft | 292 kts | 2° |
| 2026-04-30 19:15 | 55.23698 | 28.92174 | 22291 ft | 292 kts | 2° |
| 2026-04-30 19:16 | 55.25734 | 28.92514 | 22290 ft | 292 kts | 2° |
| 2026-04-30 19:16 | 55.27752 | 28.92851 | 22289 ft | 292 kts | 2° |
| 2026-04-30 19:16 | 55.31784 | 28.93528 | 22289 ft | 293 kts | 2° |
| 2026-04-30 19:17 | 55.33824 | 28.93871 | 22290 ft | 293 kts | 2° |
| 2026-04-30 19:17 | 55.37862 | 28.94553 | 22288 ft | 293 kts | 2° |
| 2026-04-30 19:17 | 55.39876 | 28.94895 | 22291 ft | 293 kts | 2° |
| 2026-04-30 19:18 | 55.43259 | 28.95472 | 22291 ft | 293 kts | 2° |
| 2026-04-30 19:18 | 55.45954 | 28.95935 | 22291 ft | 293 kts | 2° |
| 2026-04-30 19:18 | 55.47979 | 28.96284 | 22289 ft | 293 kts | 2° |
| 2026-04-30 19:19 | 55.49996 | 28.96633 | 22290 ft | 293 kts | 2° |
| 2026-04-30 19:19 | 55.52039 | 28.96987 | 22291 ft | 293 kts | 2° |
| 2026-04-30 19:19 | 55.56092 | 28.97690 | 22291 ft | 293 kts | 2° |
| 2026-04-30 19:20 | 55.58111 | 28.98042 | 22290 ft | 294 kts | 2° |
| 2026-04-30 19:20 | 55.60128 | 28.98395 | 22289 ft | 294 kts | 2° |
| 2026-04-30 19:20 | 55.64172 | 28.99108 | 22289 ft | 294 kts | 2° |
| 2026-04-30 19:21 | 55.66197 | 28.99465 | 22289 ft | 294 kts | 2° |
| 2026-04-30 19:21 | 55.70276 | 29.00188 | 22284 ft | 294 kts | 2° |
| 2026-04-30 19:22 | 55.74327 | 29.00910 | 22278 ft | 294 kts | 2° |
| 2026-04-30 19:22 | 55.80406 | 29.02003 | 22266 ft | 295 kts | 2° |
| 2026-04-30 19:23 | 55.86518 | 29.03112 | 22259 ft | 295 kts | 2° |
| 2026-04-30 19:24 | 55.90581 | 29.03854 | 22260 ft | 295 kts | 2° |
| 2026-04-30 19:24 | 55.92608 | 29.04226 | 22259 ft | 295 kts | 2° |
| 2026-04-30 19:24 | 55.96687 | 29.04977 | 22259 ft | 295 kts | 2° |
| 2026-04-30 19:25 | 56.02762 | 29.05935 | 22273 ft | 293 kts | 358° |
| 2026-04-30 19:26 | 56.06838 | 29.06163 | 22261 ft | 293 kts | 359° |
| 2026-04-30 19:26 | 56.10912 | 29.06437 | 22260 ft | 293 kts | 359° |
| 2026-04-30 19:26 | 56.12928 | 29.06578 | 22261 ft | 293 kts | 359° |
| 2026-04-30 19:27 | 56.17009 | 29.06863 | 22262 ft | 293 kts | 359° |
| 2026-04-30 19:27 | 56.21062 | 29.07148 | 22260 ft | 293 kts | 359° |
| 2026-04-30 19:28 | 56.23088 | 29.07290 | 22262 ft | 293 kts | 359° |
| 2026-04-30 19:28 | 56.27152 | 29.07575 | 22261 ft | 293 kts | 359° |
| 2026-04-30 19:29 | 56.31213 | 29.07684 | 22253 ft | 293 kts | 356° |
| 2026-04-30 19:29 | 56.33245 | 29.07678 | 22259 ft | 292 kts | 356° |
| 2026-04-30 19:30 | 56.39321 | 29.07719 | 22262 ft | 292 kts | 356° |
| 2026-04-30 19:30 | 56.43396 | 29.07759 | 22261 ft | 293 kts | 357° |
| 2026-04-30 19:31 | 56.47456 | 29.07801 | 22259 ft | 293 kts | 356° |
| 2026-04-30 19:31 | 56.49468 | 29.07821 | 22261 ft | 293 kts | 357° |
| 2026-04-30 19:31 | 56.53549 | 29.07862 | 22259 ft | 293 kts | 357° |
| 2026-04-30 19:32 | 56.55580 | 29.07882 | 22262 ft | 293 kts | 356° |
| 2026-04-30 19:32 | 56.57592 | 29.07902 | 22258 ft | 293 kts | 356° |
| 2026-04-30 19:32 | 56.59625 | 29.07923 | 22261 ft | 293 kts | 357° |
| 2026-04-30 19:32 | 56.61668 | 29.07943 | 22260 ft | 293 kts | 357° |
| 2026-04-30 19:33 | 56.63686 | 29.07963 | 22259 ft | 293 kts | 356° |
| 2026-04-30 19:33 | 56.65713 | 29.07983 | 22262 ft | 293 kts | 357° |
| 2026-04-30 19:33 | 56.67746 | 29.08002 | 22259 ft | 293 kts | 357° |
| 2026-04-30 19:33 | 56.69777 | 29.08023 | 22261 ft | 293 kts | 357° |
| 2026-04-30 19:34 | 56.71833 | 29.08110 | 22257 ft | 293 kts | 358° |
| 2026-04-30 19:34 | 56.73859 | 29.08192 | 22261 ft | 293 kts | 358° |
| 2026-04-30 19:34 | 56.77912 | 29.08329 | 22262 ft | 293 kts | 357° |
| 2026-04-30 19:35 | 56.79959 | 29.08393 | 22259 ft | 293 kts | 357° |
| 2026-04-30 19:35 | 56.82001 | 29.08456 | 22260 ft | 293 kts | 358° |
| 2026-04-30 19:35 | 56.84031 | 29.08517 | 22261 ft | 293 kts | 357° |
| 2026-04-30 19:35 | 56.86068 | 29.08579 | 22258 ft | 293 kts | 357° |
| 2026-04-30 19:36 | 56.88099 | 29.08641 | 22262 ft | 293 kts | 357° |
| 2026-04-30 19:36 | 56.90114 | 29.08701 | 22260 ft | 293 kts | 357° |
| 2026-04-30 19:36 | 56.94183 | 29.08822 | 22262 ft | 293 kts | 357° |
| 2026-04-30 19:37 | 56.96219 | 29.08884 | 22259 ft | 293 kts | 358° |
| 2026-04-30 19:37 | 56.98263 | 29.08946 | 22261 ft | 293 kts | 357° |
| 2026-04-30 19:37 | 57.00311 | 29.09012 | 22260 ft | 294 kts | 357° |
| 2026-04-30 19:37 | 57.02350 | 29.09085 | 22259 ft | 294 kts | 357° |
| 2026-04-30 19:38 | 57.04382 | 29.09163 | 22262 ft | 294 kts | 357° |
| 2026-04-30 19:38 | 57.06422 | 29.09248 | 22259 ft | 294 kts | 357° |
| 2026-04-30 19:38 | 57.08461 | 29.09340 | 22261 ft | 294 kts | 357° |
| 2026-04-30 19:38 | 57.10487 | 29.09440 | 22260 ft | 294 kts | 357° |
| 2026-04-30 19:39 | 57.12542 | 29.09549 | 22260 ft | 294 kts | 357° |
| 2026-04-30 19:39 | 57.14579 | 29.09665 | 22261 ft | 294 kts | 357° |
| 2026-04-30 19:39 | 57.16629 | 29.09786 | 22259 ft | 294 kts | 357° |
| 2026-04-30 19:39 | 57.18652 | 29.09906 | 22261 ft | 294 kts | 357° |
| 2026-04-30 19:40 | 57.20710 | 29.10030 | 22260 ft | 294 kts | 357° |
| 2026-04-30 19:40 | 57.22737 | 29.10152 | 22259 ft | 294 kts | 357° |
| 2026-04-30 19:40 | 57.24790 | 29.10275 | 22261 ft | 294 kts | 357° |
| 2026-04-30 19:40 | 57.26821 | 29.10397 | 22259 ft | 295 kts | 357° |
| 2026-04-30 19:41 | 57.28883 | 29.10521 | 22261 ft | 294 kts | 357° |
| 2026-04-30 19:41 | 57.30926 | 29.10644 | 22260 ft | 295 kts | 357° |
| 2026-04-30 19:41 | 57.32954 | 29.10766 | 22259 ft | 295 kts | 357° |
| 2026-04-30 19:41 | 57.35006 | 29.10889 | 22262 ft | 294 kts | 357° |
| 2026-04-30 19:42 | 57.37047 | 29.10966 | 22256 ft | 295 kts | 356° |
| 2026-04-30 19:42 | 57.39066 | 29.11055 | 22261 ft | 295 kts | 357° |
| 2026-04-30 19:42 | 57.41122 | 29.11159 | 22259 ft | 295 kts | 357° |
| 2026-04-30 19:42 | 57.43157 | 29.11267 | 22262 ft | 295 kts | 357° |
| 2026-04-30 19:43 | 57.45208 | 29.11380 | 22259 ft | 295 kts | 357° |
| 2026-04-30 19:43 | 57.47254 | 29.11494 | 22261 ft | 295 kts | 357° |
| 2026-04-30 19:43 | 57.49298 | 29.11608 | 22261 ft | 295 kts | 357° |
| 2026-04-30 19:44 | 57.53370 | 29.11767 | 22256 ft | 295 kts | 356° |
| 2026-04-30 19:44 | 57.55417 | 29.11845 | 22261 ft | 295 kts | 356° |
| 2026-04-30 19:44 | 57.57465 | 29.11931 | 22261 ft | 295 kts | 357° |
| 2026-04-30 19:44 | 57.59504 | 29.12021 | 22259 ft | 295 kts | 357° |
| 2026-04-30 19:45 | 57.61555 | 29.12113 | 22261 ft | 295 kts | 357° |
| 2026-04-30 19:45 | 57.63610 | 29.12206 | 22260 ft | 295 kts | 357° |
| 2026-04-30 19:45 | 57.65654 | 29.12299 | 22260 ft | 295 kts | 357° |
| 2026-04-30 19:45 | 57.67703 | 29.12539 | 22275 ft | 297 kts | 4° |
| 2026-04-30 19:46 | 57.69745 | 29.13127 | 22246 ft | 298 kts | 4° |
| 2026-04-30 19:46 | 57.71784 | 29.13698 | 22250 ft | 298 kts | 4° |
| 2026-04-30 19:46 | 57.73829 | 29.14250 | 22257 ft | 298 kts | 4° |
| 2026-04-30 19:46 | 57.75869 | 29.14792 | 22263 ft | 298 kts | 4° |
| 2026-04-30 19:47 | 57.77926 | 29.15334 | 22257 ft | 298 kts | 4° |
| 2026-04-30 19:47 | 57.79297 | 29.15694 | 22259 ft | 298 kts | 4° |
| 2026-04-30 19:47 | 57.82020 | 29.16409 | 22259 ft | 298 kts | 4° |
| 2026-04-30 19:47 | 57.84054 | 29.16852 | 22271 ft | 295 kts | 357° |
| 2026-04-30 19:48 | 57.86086 | 29.16762 | 22258 ft | 294 kts | 353° |
| 2026-04-30 19:48 | 57.88135 | 29.16640 | 22251 ft | 294 kts | 354° |
| 2026-04-30 19:48 | 57.90185 | 29.16544 | 22256 ft | 294 kts | 354° |
| 2026-04-30 19:48 | 57.92207 | 29.16462 | 22260 ft | 294 kts | 354° |
| 2026-04-30 19:49 | 57.94265 | 29.16385 | 22261 ft | 294 kts | 354° |
| 2026-04-30 19:49 | 57.98351 | 29.16238 | 22261 ft | 294 kts | 354° |
| 2026-04-30 19:49 | 58.00376 | 29.16167 | 22260 ft | 294 kts | 354° |
| 2026-04-30 19:50 | 58.02424 | 29.16068 | 22266 ft | 294 kts | 352° |
| 2026-04-30 19:50 | 58.04448 | 29.15833 | 22255 ft | 294 kts | 352° |
| 2026-04-30 19:50 | 58.06488 | 29.15610 | 22262 ft | 294 kts | 352° |
| 2026-04-30 19:50 | 58.08515 | 29.15403 | 22259 ft | 294 kts | 352° |
| 2026-04-30 19:51 | 58.10539 | 29.15203 | 22259 ft | 294 kts | 352° |
| 2026-04-30 19:51 | 58.12574 | 29.15005 | 22262 ft | 294 kts | 352° |
| 2026-04-30 19:51 | 58.14609 | 29.14808 | 22259 ft | 294 kts | 352° |
| 2026-04-30 19:51 | 58.16619 | 29.14635 | 22266 ft | 294 kts | 354° |
| 2026-04-30 19:52 | 58.18688 | 29.14647 | 22257 ft | 295 kts | 356° |
| 2026-04-30 19:52 | 58.20729 | 29.14674 | 22258 ft | 295 kts | 355° |
| 2026-04-30 19:52 | 58.22762 | 29.14689 | 22262 ft | 295 kts | 355° |
| 2026-04-30 19:52 | 58.24821 | 29.14698 | 22259 ft | 295 kts | 355° |
| 2026-04-30 19:53 | 58.26855 | 29.14703 | 22260 ft | 295 kts | 355° |
| 2026-04-30 19:53 | 58.28906 | 29.14729 | 22267 ft | 295 kts | 357° |
| 2026-04-30 19:53 | 58.30949 | 29.14861 | 22259 ft | 296 kts | 357° |
| 2026-04-30 19:53 | 58.32990 | 29.14981 | 22262 ft | 295 kts | 357° |
| 2026-04-30 19:54 | 58.35052 | 29.15089 | 22258 ft | 296 kts | 357° |
| 2026-04-30 19:54 | 58.37088 | 29.15191 | 22262 ft | 295 kts | 357° |
| 2026-04-30 19:54 | 58.39158 | 29.15292 | 22259 ft | 295 kts | 357° |
| 2026-04-30 19:54 | 58.41206 | 29.15391 | 22260 ft | 295 kts | 357° |
| 2026-04-30 19:55 | 58.43259 | 29.15489 | 22261 ft | 295 kts | 357° |
| 2026-04-30 19:55 | 58.45280 | 29.15586 | 22259 ft | 295 kts | 357° |
| 2026-04-30 19:55 | 58.47342 | 29.15686 | 22262 ft | 295 kts | 357° |
| 2026-04-30 19:55 | 58.49380 | 29.15784 | 22259 ft | 296 kts | 357° |
| 2026-04-30 19:56 | 58.51445 | 29.15884 | 22260 ft | 295 kts | 357° |
| 2026-04-30 19:56 | 58.53495 | 29.15983 | 22261 ft | 296 kts | 357° |
| 2026-04-30 19:56 | 58.55552 | 29.16082 | 22259 ft | 296 kts | 357° |
| 2026-04-30 19:56 | 58.57594 | 29.16181 | 22262 ft | 295 kts | 357° |
| 2026-04-30 19:57 | 58.59642 | 29.16280 | 22259 ft | 296 kts | 357° |
| 2026-04-30 19:57 | 58.61687 | 29.16379 | 22261 ft | 296 kts | 357° |
| 2026-04-30 19:57 | 58.63728 | 29.16478 | 22260 ft | 296 kts | 357° |
| 2026-04-30 19:57 | 58.65803 | 29.16579 | 22259 ft | 296 kts | 357° |
| 2026-04-30 19:58 | 58.67842 | 29.16677 | 22262 ft | 296 kts | 357° |
| 2026-04-30 19:58 | 58.69887 | 29.16777 | 22259 ft | 296 kts | 357° |
| 2026-04-30 19:58 | 58.71927 | 29.16876 | 22261 ft | 296 kts | 357° |
| 2026-04-30 19:58 | 58.73983 | 29.16977 | 22251 ft | 291 kts | 356° |
| 2026-04-30 19:59 | 58.75974 | 29.17077 | 22017 ft | 288 kts | 357° |
| 2026-04-30 19:59 | 58.77972 | 29.17192 | 21752 ft | 287 kts | 357° |
| 2026-04-30 19:59 | 58.81948 | 29.17439 | 21214 ft | 285 kts | 357° |
| 2026-04-30 20:00 | 58.83907 | 29.17551 | 20949 ft | 283 kts | 357° |
| 2026-04-30 20:00 | 58.85883 | 29.17663 | 20682 ft | 282 kts | 357° |
| 2026-04-30 20:00 | 58.87832 | 29.17773 | 20418 ft | 281 kts | 357° |
| 2026-04-30 20:00 | 58.89771 | 29.17882 | 20158 ft | 280 kts | 357° |
| 2026-04-30 20:01 | 58.93649 | 29.18111 | 19643 ft | 278 kts | 357° |
| 2026-04-30 20:01 | 58.95564 | 29.18231 | 19388 ft | 277 kts | 357° |
| 2026-04-30 20:01 | 58.97457 | 29.18357 | 19138 ft | 275 kts | 356° |
| 2026-04-30 20:02 | 59.01037 | 29.20820 | 18662 ft | 285 kts | 37° |
| 2026-04-30 20:02 | 59.02364 | 29.23735 | 18402 ft | 287 kts | 49° |
| 2026-04-30 20:03 | 59.04810 | 29.29692 | 17799 ft | 280 kts | 47° |
| 2026-04-30 20:03 | 59.06056 | 29.32623 | 17488 ft | 277 kts | 47° |
| 2026-04-30 20:03 | 59.07254 | 29.35473 | 17176 ft | 274 kts | 47° |
| 2026-04-30 20:03 | 59.08460 | 29.38355 | 16856 ft | 272 kts | 47° |
| 2026-04-30 20:04 | 59.09646 | 29.41195 | 16539 ft | 270 kts | 48° |
| 2026-04-30 20:04 | 59.10817 | 29.44001 | 16222 ft | 269 kts | 48° |
| 2026-04-30 20:04 | 59.11991 | 29.46812 | 15901 ft | 267 kts | 48° |
| 2026-04-30 20:05 | 59.14328 | 29.52395 | 15260 ft | 264 kts | 47° |
| 2026-04-30 20:05 | 59.15471 | 29.55120 | 14945 ft | 263 kts | 48° |
| 2026-04-30 20:05 | 59.17787 | 29.60630 | 14307 ft | 261 kts | 48° |
| 2026-04-30 20:06 | 59.18919 | 29.63315 | 13994 ft | 259 kts | 47° |
| 2026-04-30 20:06 | 59.20067 | 29.66035 | 13675 ft | 258 kts | 49° |
| 2026-04-30 20:06 | 59.20804 | 29.67795 | 13469 ft | 257 kts | 49° |
| 2026-04-30 20:06 | 59.21929 | 29.70486 | 13151 ft | 256 kts | 49° |
| 2026-04-30 20:07 | 59.23047 | 29.73145 | 12835 ft | 255 kts | 49° |
| 2026-04-30 20:07 | 59.24178 | 29.75846 | 12518 ft | 254 kts | 50° |
| 2026-04-30 20:07 | 59.26419 | 29.81252 | 11907 ft | 258 kts | 49° |
| 2026-04-30 20:08 | 59.27556 | 29.83964 | 11614 ft | 259 kts | 49° |
| 2026-04-30 20:08 | 59.28682 | 29.86647 | 11374 ft | 258 kts | 49° |
| 2026-04-30 20:08 | 59.29815 | 29.89354 | 11151 ft | 257 kts | 49° |
| 2026-04-30 20:08 | 59.30942 | 29.92055 | 10928 ft | 255 kts | 49° |
| 2026-04-30 20:09 | 59.32064 | 29.94750 | 10706 ft | 254 kts | 49° |
| 2026-04-30 20:09 | 59.33167 | 29.97404 | 10486 ft | 253 kts | 49° |
| 2026-04-30 20:09 | 59.35369 | 30.02729 | 10046 ft | 250 kts | 49° |
| 2026-04-30 20:10 | 59.37547 | 30.08022 | 9608 ft | 248 kts | 49° |
| 2026-04-30 20:10 | 59.38614 | 30.10622 | 9393 ft | 245 kts | 49° |
| 2026-04-30 20:10 | 59.39678 | 30.13226 | 9169 ft | 241 kts | 49° |
| 2026-04-30 20:11 | 59.41746 | 30.18303 | 8712 ft | 236 kts | 49° |
| 2026-04-30 20:11 | 59.42756 | 30.20791 | 8455 ft | 236 kts | 49° |
| 2026-04-30 20:11 | 59.43785 | 30.23331 | 8120 ft | 239 kts | 49° |
| 2026-04-30 20:12 | 59.45863 | 30.28466 | 7478 ft | 240 kts | 49° |
| 2026-04-30 20:12 | 59.46899 | 30.31033 | 7166 ft | 240 kts | 49° |
| 2026-04-30 20:12 | 59.47931 | 30.33593 | 6859 ft | 240 kts | 49° |
| 2026-04-30 20:13 | 59.48963 | 30.36155 | 6603 ft | 237 kts | 49° |
| 2026-04-30 20:13 | 59.49971 | 30.38663 | 6362 ft | 234 kts | 49° |
| 2026-04-30 20:13 | 59.50964 | 30.41140 | 6211 ft | 228 kts | 49° |
| 2026-04-30 20:13 | 59.52018 | 30.43401 | 6041 ft | 216 kts | 38° |
| 2026-04-30 20:14 | 59.53120 | 30.45303 | 5762 ft | 209 kts | 37° |
| 2026-04-30 20:14 | 59.54190 | 30.47164 | 5469 ft | 205 kts | 38° |
| 2026-04-30 20:14 | 59.55254 | 30.49044 | 5165 ft | 203 kts | 38° |
| 2026-04-30 20:14 | 59.56293 | 30.50849 | 4868 ft | 200 kts | 38° |
| 2026-04-30 20:15 | 59.57326 | 30.52662 | 4609 ft | 196 kts | 37° |
| 2026-04-30 20:15 | 59.58338 | 30.54426 | 4368 ft | 193 kts | 38° |
| 2026-04-30 20:15 | 59.59327 | 30.56172 | 4110 ft | 191 kts | 37° |
| 2026-04-30 20:15 | 59.60345 | 30.57858 | 3806 ft | 191 kts | 34° |
| 2026-04-30 20:16 | 59.61395 | 30.59481 | 3522 ft | 190 kts | 33° |
| 2026-04-30 20:16 | 59.62427 | 30.61079 | 3281 ft | 187 kts | 34° |
| 2026-04-30 20:16 | 59.63425 | 30.62617 | 3149 ft | 179 kts | 34° |
| 2026-04-30 20:16 | 59.64406 | 30.64132 | 2947 ft | 179 kts | 35° |
| 2026-04-30 20:17 | 59.65415 | 30.65551 | 2794 ft | 177 kts | 25° |
| 2026-04-30 20:17 | 59.66567 | 30.66237 | 2672 ft | 173 kts | 2° |
| 2026-04-30 20:17 | 59.67731 | 30.65899 | 2553 ft | 168 kts | 334° |
| 2026-04-30 20:17 | 59.68718 | 30.64730 | 2534 ft | 161 kts | 324° |
| 2026-04-30 20:18 | 59.69639 | 30.63533 | 2482 ft | 156 kts | 324° |
| 2026-04-30 20:18 | 59.70511 | 30.62390 | 2498 ft | 146 kts | 323° |
| 2026-04-30 20:18 | 59.71327 | 30.61258 | 2520 ft | 139 kts | 322° |
| 2026-04-30 20:18 | 59.72078 | 30.60154 | 2529 ft | 128 kts | 320° |
| 2026-04-30 20:19 | 59.72771 | 30.59091 | 2507 ft | 123 kts | 320° |
| 2026-04-30 20:19 | 59.73440 | 30.58056 | 2490 ft | 122 kts | 319° |
| 2026-04-30 20:19 | 59.74033 | 30.56858 | 2404 ft | 126 kts | 306° |
| 2026-04-30 20:19 | 59.74518 | 30.55344 | 2291 ft | 130 kts | 299° |
| 2026-04-30 20:20 | 59.74958 | 30.53756 | 2204 ft | 132 kts | 296° |
| 2026-04-30 20:20 | 59.75337 | 30.52115 | 2102 ft | 131 kts | 292° |
| 2026-04-30 20:20 | 59.75658 | 30.50463 | 2021 ft | 123 kts | 289° |
| 2026-04-30 20:20 | 59.75899 | 30.48986 | 1942 ft | 106 kts | 287° |
| 2026-04-30 20:21 | 59.76105 | 30.47613 | 1789 ft | 101 kts | 287° |
| 2026-04-30 20:21 | 59.76314 | 30.46291 | 1648 ft | 99 kts | 288° |
| 2026-04-30 20:21 | 59.76522 | 30.44980 | 1545 ft | 100 kts | 287° |
| 2026-04-30 20:21 | 59.76723 | 30.43651 | 1446 ft | 101 kts | 287° |
| 2026-04-30 20:22 | 59.76914 | 30.42315 | 1335 ft | 101 kts | 286° |
| 2026-04-30 20:22 | 59.77108 | 30.40980 | 1231 ft | 100 kts | 287° |
| 2026-04-30 20:22 | 59.77309 | 30.39650 | 1129 ft | 99 kts | 287° |
| 2026-04-30 20:22 | 59.77514 | 30.38350 | 1029 ft | 99 kts | 288° |
| 2026-04-30 20:23 | 59.77723 | 30.37042 | 916 ft | 100 kts | 288° |
| 2026-04-30 20:23 | 59.77932 | 30.35716 | 807 ft | 100 kts | 288° |
| 2026-04-30 20:23 | 59.78131 | 30.34416 | 728 ft | 98 kts | 286° |
| 2026-04-30 20:23 | 59.78319 | 30.33104 | 610 ft | 100 kts | 285° |
| 2026-04-30 20:24 | 59.78516 | 30.31743 | 472 ft | 103 kts | 286° |
| 2026-04-30 20:24 | 59.78720 | 30.30370 | 334 ft | 105 kts | 287° |
| 2026-04-30 20:24 | 59.78930 | 30.28967 | 182 ft | 106 kts | 287° |
| 2026-04-30 20:24 | 59.79135 | 30.27608 | 89 ft | 96 kts | 286° |
| 2026-04-30 20:25 | 59.79380 | 30.25953 | 85 ft | 40 kts | 286° |
| 2026-04-30 20:25 | 59.79434 | 30.25595 | 85 ft | 10 kts | 286° |
| 2026-04-30 20:26 | 59.79500 | 30.25582 | 85 ft | 10 kts | 76° |
| 2026-04-30 20:26 | 59.79525 | 30.25787 | 85 ft | 0 kts | 76° |
| 2026-04-30 20:27 | 59.79544 | 30.25943 | 85 ft | 9 kts | 70° |
| 2026-04-30 20:28 | 59.79671 | 30.26055 | 85 ft | 14 kts | 28° |
| 2026-04-30 20:28 | 59.79787 | 30.26154 | 85 ft | 6 kts | 73° |
| 2026-04-30 20:29 | 59.79771 | 30.26285 | 85 ft | 0 kts | 106° |